createdAt,value
2018-12-12T00:00:50.254Z,14.9
2018-12-12T00:02:50.234Z,14.2
2018-12-12T00:04:49.649Z,15.3
2018-12-12T00:06:50.008Z,14.1
2018-12-12T00:08:50.002Z,14.1
2018-12-12T00:10:50.044Z,15.2
2018-12-12T00:12:50.060Z,15.0
2018-12-12T00:14:49.992Z,15.4
2018-12-12T00:16:50.076Z,15.5
2018-12-12T00:18:50.024Z,15.2
2018-12-12T00:20:50.083Z,15.2
2018-12-12T00:22:50.151Z,15.6
2018-12-12T00:24:50.152Z,14.7
2018-12-12T00:26:50.298Z,15.0
2018-12-12T00:28:50.336Z,15.3
2018-12-12T00:30:50.343Z,15.3
2018-12-12T00:32:50.387Z,15.5
2018-12-12T00:34:49.673Z,15.5
2018-12-12T00:36:49.899Z,16.4
2018-12-12T00:38:49.899Z,16.4
2018-12-12T00:40:49.888Z,15.5
2018-12-12T00:42:49.847Z,15.5
2018-12-12T00:44:49.833Z,16.1
2018-12-12T00:46:50.050Z,16.0
2018-12-12T00:48:50.055Z,16.0
2018-12-12T00:50:50.057Z,16.9
2018-12-12T00:52:50.066Z,15.6
2018-12-12T00:54:50.175Z,15.9
2018-12-12T00:56:50.310Z,16.4
2018-12-12T00:58:50.342Z,16.4
2018-12-12T01:00:50.298Z,17.5
2018-12-12T01:02:50.319Z,15.3
2018-12-12T01:04:49.706Z,15.3
2018-12-12T01:06:49.920Z,16.9
2018-12-12T01:08:49.908Z,16.9
2018-12-12T01:10:49.861Z,16.5
2018-12-12T01:12:49.892Z,16.8
2018-12-12T01:14:49.875Z,15.3
2018-12-12T01:16:49.949Z,15.3
2018-12-12T01:18:49.862Z,15.6
2018-12-12T01:20:49.862Z,15.7
2018-12-12T01:22:49.871Z,16.8
2018-12-12T01:24:49.888Z,14.8
2018-12-12T01:26:50.227Z,14.8
2018-12-12T01:28:50.165Z,16.2
2018-12-12T01:30:50.097Z,16.1
2018-12-12T01:32:50.114Z,16.3
2018-12-12T01:34:50.479Z,16.3
2018-12-12T01:36:49.695Z,16.3
2018-12-12T01:38:49.639Z,17.0
2018-12-12T01:40:49.666Z,15.7
2018-12-12T01:42:49.720Z,15.3
2018-12-12T01:44:49.667Z,15.5
2018-12-12T01:46:49.871Z,15.5
2018-12-12T01:48:49.906Z,15.8
2018-12-12T01:50:49.884Z,16.0
2018-12-12T01:52:49.832Z,16.9
2018-12-12T01:54:49.831Z,16.6
2018-12-12T01:56:50.013Z,16.6
2018-12-12T01:58:49.995Z,15.4
2018-12-12T02:00:50.029Z,16.0
2018-12-12T02:02:50.020Z,15.9
2018-12-12T02:04:50.284Z,15.9
2018-12-12T02:06:50.460Z,15.6
2018-12-12T02:08:50.444Z,16.8
2018-12-12T02:10:50.464Z,16.4
2018-12-12T02:12:49.591Z,16.4
2018-12-12T02:14:49.694Z,16.0
2018-12-12T02:16:50.009Z,14.7
2018-12-12T02:18:50.012Z,15.3
2018-12-12T02:20:50.090Z,16.4
2018-12-12T02:22:50.208Z,15.1
2018-12-12T02:24:50.434Z,15.1
2018-12-12T02:26:49.648Z,17.0
2018-12-12T02:28:49.809Z,16.1
2018-12-12T02:30:49.854Z,16.9
2018-12-12T02:32:49.866Z,15.3
2018-12-12T02:34:50.138Z,15.3
2018-12-12T02:36:50.373Z,16.8
2018-12-12T02:38:50.361Z,17.4
2018-12-12T02:40:50.389Z,16.7
2018-12-12T02:42:50.328Z,16.7
2018-12-12T02:44:50.312Z,15.8
2018-12-12T02:46:49.553Z,15.8
2018-12-12T02:48:49.510Z,15.8
2018-12-12T02:50:49.647Z,15.5
2018-12-12T02:52:49.615Z,15.5
2018-12-12T02:54:49.640Z,16.1
2018-12-12T02:56:49.847Z,16.4
2018-12-12T02:58:49.838Z,17.1
2018-12-12T03:00:49.812Z,17.1
2018-12-12T03:02:49.795Z,17.0
2018-12-12T03:04:50.144Z,17.0
2018-12-12T03:06:50.496Z,16.7
2018-12-12T03:08:49.678Z,16.8
2018-12-12T03:10:49.672Z,16.8
2018-12-12T03:12:49.605Z,16.8
2018-12-12T03:14:49.576Z,16.1
2018-12-12T03:16:49.782Z,15.9
2018-12-12T03:18:49.748Z,15.9
2018-12-12T03:20:49.774Z,16.1
2018-12-12T03:22:49.774Z,16.1
2018-12-12T03:24:49.758Z,16.6
2018-12-12T03:26:49.837Z,15.5
2018-12-12T03:28:49.847Z,15.5
2018-12-12T03:30:49.831Z,15.4
2018-12-12T03:32:49.960Z,15.6
2018-12-12T03:34:50.350Z,15.6
2018-12-12T03:36:50.322Z,15.6
2018-12-12T03:38:50.325Z,15.8
2018-12-12T03:40:50.345Z,15.8
2018-12-12T03:42:50.385Z,15.7
2018-12-12T03:44:50.388Z,15.7
2018-12-12T03:46:49.621Z,16.7
2018-12-12T03:48:49.643Z,16.7
2018-12-12T03:50:49.687Z,17.6
2018-12-12T03:52:49.710Z,16.0
2018-12-12T03:54:49.780Z,17.0
2018-12-12T03:56:49.979Z,18.4
2018-12-12T03:58:50.028Z,18.4
2018-12-12T04:00:50.043Z,17.1
2018-12-12T04:02:50.052Z,17.8
2018-12-12T04:04:50.413Z,17.8
2018-12-12T04:06:49.602Z,17.8
2018-12-12T04:08:49.559Z,17.3
2018-12-12T04:10:49.558Z,17.3
2018-12-12T04:12:49.666Z,17.5
2018-12-12T04:14:49.649Z,15.8
2018-12-12T04:16:49.771Z,17.1
2018-12-12T04:18:49.779Z,17.1
2018-12-12T04:20:49.807Z,16.3
2018-12-12T04:22:49.806Z,15.9
2018-12-12T04:24:49.803Z,15.7
2018-12-12T04:26:49.960Z,15.5
2018-12-12T04:28:49.934Z,15.5
2018-12-12T04:30:49.907Z,14.5
2018-12-12T04:32:49.953Z,14.9
2018-12-12T04:34:50.362Z,14.6
2018-12-12T04:36:50.479Z,14.6
2018-12-12T04:38:50.441Z,14.6
2018-12-12T04:40:49.515Z,14.0
2018-12-12T04:42:49.557Z,14.0
2018-12-12T04:44:49.534Z,14.0
2018-12-12T04:46:49.822Z,13.5
2018-12-12T04:48:49.792Z,13.5
2018-12-12T04:50:49.786Z,12.2
2018-12-12T04:52:49.796Z,12.3
2018-12-12T04:54:49.793Z,11.4
2018-12-12T04:56:50.042Z,12.0
2018-12-12T04:58:50.030Z,12.0
2018-12-12T05:00:50.031Z,12.1
2018-12-12T05:02:50.010Z,12.0
2018-12-12T05:04:50.321Z,11.0
2018-12-12T05:06:50.498Z,11.0
2018-12-12T05:08:49.609Z,12.0
2018-12-12T05:10:49.642Z,11.2
2018-12-12T05:12:49.689Z,10.8
2018-12-12T05:14:49.839Z,11.6
2018-12-12T05:16:50.041Z,11.6
2018-12-12T05:18:49.993Z,10.5
2018-12-12T05:20:49.966Z,10.9
2018-12-12T05:22:49.910Z,10.9
2018-12-12T05:24:49.901Z,10.9
2018-12-12T05:26:50.383Z,10.4
2018-12-12T05:28:50.448Z,10.9
2018-12-12T05:30:50.432Z,11.4
2018-12-12T05:32:50.406Z,9.9
2018-12-12T05:34:49.874Z,9.2
2018-12-12T05:36:49.985Z,9.2
2018-12-12T05:38:50.003Z,10.1
2018-12-12T05:40:50.040Z,10.1
2018-12-12T05:42:50.113Z,10.1
2018-12-12T05:44:50.095Z,10.1
2018-12-12T05:46:50.241Z,10.0
2018-12-12T05:48:50.262Z,10.2
2018-12-12T05:50:50.256Z,9.5
2018-12-12T05:52:50.212Z,9.5
2018-12-12T05:54:50.257Z,10.5
2018-12-12T05:56:52.661Z,10.5
2018-12-12T05:58:49.722Z,9.4
2018-12-12T06:00:49.803Z,9.4
2018-12-12T06:02:49.908Z,9.2
2018-12-12T06:04:50.218Z,9.2
2018-12-12T06:06:50.468Z,8.9
2018-12-12T06:08:50.412Z,9.3
2018-12-12T06:10:50.390Z,9.3
2018-12-12T06:12:50.498Z,9.9
2018-12-12T06:14:49.512Z,9.9
2018-12-12T06:16:49.775Z,9.0
2018-12-12T06:18:49.918Z,9.0
2018-12-12T06:20:49.962Z,9.5
2018-12-12T06:22:49.967Z,9.3
2018-12-12T06:24:49.984Z,9.0
2018-12-12T06:26:50.157Z,9.8
2018-12-12T06:28:50.160Z,9.1
2018-12-12T06:30:50.178Z,9.1
2018-12-12T06:32:50.236Z,9.0
2018-12-12T06:34:49.535Z,9.0
2018-12-12T06:36:50.358Z,9.3
2018-12-12T06:38:50.306Z,9.6
2018-12-12T06:40:50.330Z,9.1
2018-12-12T06:42:50.274Z,9.3
2018-12-12T06:44:50.234Z,9.3
2018-12-12T06:46:50.363Z,9.4
2018-12-12T06:48:50.314Z,9.2
2018-12-12T06:50:50.313Z,9.2
2018-12-12T06:52:50.379Z,8.3
2018-12-12T06:54:50.380Z,8.3
2018-12-12T06:56:49.642Z,8.9
2018-12-12T06:58:49.677Z,8.7
2018-12-12T07:00:49.655Z,8.9
2018-12-12T07:02:49.717Z,8.6
2018-12-12T07:04:49.938Z,8.6
2018-12-12T07:06:50.102Z,8.5
2018-12-12T07:08:50.122Z,8.6
2018-12-12T07:10:50.109Z,8.3
2018-12-12T07:12:50.149Z,8.3
2018-12-12T07:14:50.112Z,8.4
2018-12-12T07:16:50.288Z,8.4
2018-12-12T07:18:50.254Z,8.4
2018-12-12T07:20:50.268Z,8.1
2018-12-12T07:22:50.254Z,8.1
2018-12-12T07:24:50.249Z,8.3
2018-12-12T07:26:49.547Z,8.4
2018-12-12T07:28:49.557Z,8.4
2018-12-12T07:30:49.602Z,7.5
2018-12-12T07:32:49.554Z,7.5
2018-12-12T07:34:50.169Z,8.0
2018-12-12T07:36:50.395Z,8.4
2018-12-12T07:38:50.364Z,8.1
2018-12-12T07:40:50.347Z,8.1
2018-12-12T07:42:50.370Z,7.5
2018-12-12T07:44:50.387Z,8.2
2018-12-12T07:46:49.542Z,8.2
2018-12-12T07:48:49.547Z,7.9
2018-12-12T07:50:49.583Z,7.7
2018-12-12T07:52:49.564Z,7.9
2018-12-12T07:54:49.564Z,8.4
2018-12-12T07:56:49.782Z,8.8
2018-12-12T07:58:49.727Z,8.8
2018-12-12T08:00:49.685Z,7.9
2018-12-12T08:02:49.808Z,8.1
2018-12-12T08:04:50.056Z,8.6
2018-12-12T08:06:50.338Z,8.6
2018-12-12T08:08:50.311Z,8.8
2018-12-12T08:10:50.303Z,8.8
2018-12-12T08:12:50.272Z,8.5
2018-12-12T08:14:50.316Z,8.1
2018-12-12T08:16:50.476Z,8.5
2018-12-12T08:18:50.506Z,7.5
2018-12-12T08:20:49.529Z,7.5
2018-12-12T08:22:49.717Z,8.2
2018-12-12T08:24:49.695Z,7.9
2018-12-12T08:26:50.133Z,9.1
2018-12-12T08:28:50.197Z,9.1
2018-12-12T08:30:50.227Z,8.8
2018-12-12T08:32:50.415Z,8.7
2018-12-12T08:34:49.812Z,7.8
2018-12-12T08:36:50.051Z,7.8
2018-12-12T08:38:50.061Z,8.5
2018-12-12T08:40:50.058Z,8.5
2018-12-12T08:42:50.163Z,8.4
2018-12-12T08:44:50.126Z,8.3
2018-12-12T08:46:50.317Z,8.6
2018-12-12T08:48:50.354Z,8.6
2018-12-12T08:50:50.330Z,7.9
2018-12-12T08:52:50.337Z,7.9
2018-12-12T08:54:50.356Z,9.2
2018-12-12T08:56:49.601Z,9.2
2018-12-12T08:58:49.689Z,8.3
2018-12-12T09:00:49.721Z,8.6
2018-12-12T09:02:49.818Z,8.5
2018-12-12T09:04:50.165Z,8.6
2018-12-12T09:06:50.352Z,8.6
2018-12-12T09:08:50.440Z,8.8
2018-12-12T09:10:50.385Z,8.0
2018-12-12T09:12:50.508Z,9.0
2018-12-12T09:14:49.519Z,9.0
2018-12-12T09:16:49.851Z,8.2
2018-12-12T09:18:49.783Z,9.2
2018-12-12T09:20:49.779Z,10.1
2018-12-12T09:22:49.741Z,8.2
2018-12-12T09:24:49.781Z,8.2
2018-12-12T09:26:49.949Z,8.7
2018-12-12T09:28:49.955Z,8.7
2018-12-12T09:30:49.975Z,7.9
2018-12-12T09:32:50.014Z,7.9
2018-12-12T09:34:50.229Z,8.4
2018-12-12T09:36:50.332Z,8.4
2018-12-12T09:38:50.298Z,8.7
2018-12-12T09:40:50.217Z,8.6
2018-12-12T09:42:50.237Z,8.6
2018-12-12T09:44:50.229Z,8.1
2018-12-12T09:46:50.355Z,8.1
2018-12-12T09:48:50.393Z,7.0
2018-12-12T09:50:50.465Z,7.5
2018-12-12T09:52:50.442Z,7.5
2018-12-12T09:54:50.607Z,7.4
2018-12-12T09:56:49.700Z,7.4
2018-12-12T09:58:49.754Z,6.5
2018-12-12T10:00:49.724Z,6.5
2018-12-12T10:02:49.682Z,5.9
2018-12-12T10:04:50.087Z,5.9
2018-12-12T10:06:50.439Z,6.1
2018-12-12T10:08:50.457Z,6.0
2018-12-12T10:10:50.469Z,6.2
2018-12-12T10:12:50.355Z,6.3
2018-12-12T10:14:50.335Z,6.3
2018-12-12T10:16:50.658Z,6.3
2018-12-12T10:18:49.803Z,6.4
2018-12-12T10:20:49.840Z,6.6
2018-12-12T10:22:49.852Z,6.6
2018-12-12T10:24:49.887Z,6.5
2018-12-12T10:26:50.152Z,6.2
2018-12-12T10:28:50.080Z,5.9
2018-12-12T10:30:50.077Z,6.6
2018-12-12T10:32:50.132Z,5.9
2018-12-12T10:34:50.363Z,5.9
2018-12-12T10:36:49.560Z,5.8
2018-12-12T10:38:49.668Z,5.8
2018-12-12T10:40:49.690Z,5.8
2018-12-12T10:42:49.729Z,5.6
2018-12-12T10:44:49.771Z,5.6
2018-12-12T10:46:49.977Z,5.6
2018-12-12T10:48:49.930Z,5.5
2018-12-12T10:50:49.911Z,5.5
2018-12-12T10:52:49.927Z,5.0
2018-12-12T10:54:49.889Z,5.0
2018-12-12T10:56:50.118Z,5.2
2018-12-12T10:58:50.099Z,4.8
2018-12-12T11:00:50.151Z,4.8
2018-12-12T11:02:50.186Z,4.9
2018-12-12T11:04:50.433Z,4.8
2018-12-12T11:06:49.621Z,4.6
2018-12-12T11:08:49.690Z,4.6
2018-12-12T11:10:50.400Z,5.0
2018-12-12T11:12:50.441Z,5.7
2018-12-12T11:14:50.391Z,5.7
2018-12-12T11:16:49.684Z,4.7
2018-12-12T11:18:49.638Z,4.6
2018-12-12T11:20:49.649Z,4.6
2018-12-12T11:22:49.573Z,5.0
2018-12-12T11:24:50.491Z,4.4
2018-12-12T11:26:49.997Z,4.0
2018-12-12T11:28:50.091Z,3.2
2018-12-12T11:30:50.295Z,3.2
2018-12-12T11:32:50.508Z,3.2
2018-12-12T11:34:50.104Z,3.3
2018-12-12T11:36:50.342Z,3.2
2018-12-12T11:38:49.651Z,3.3
2018-12-12T11:40:49.765Z,3.3
2018-12-12T11:42:49.959Z,3.2
2018-12-12T11:44:50.083Z,3.1
2018-12-12T11:46:50.333Z,3.1
2018-12-12T11:48:49.569Z,3.5
2018-12-12T11:50:49.727Z,3.5
2018-12-12T11:52:49.675Z,3.4
2018-12-12T11:54:49.814Z,3.5
2018-12-12T11:56:50.167Z,3.4
2018-12-12T11:58:50.297Z,3.5
2018-12-12T12:00:50.483Z,3.5
2018-12-12T12:02:49.648Z,3.1
2018-12-12T12:04:50.164Z,3.1
2018-12-12T12:06:49.538Z,3.1
2018-12-12T12:08:49.713Z,3.2
2018-12-12T12:10:49.938Z,3.2
2018-12-12T12:12:50.053Z,3.4
2018-12-12T12:14:50.302Z,3.2
2018-12-12T12:16:50.448Z,3.2
2018-12-12T12:18:50.393Z,3.2
2018-12-12T12:20:50.479Z,3.2
2018-12-12T12:22:50.352Z,3.2
2018-12-12T12:24:50.374Z,3.3
2018-12-12T12:26:49.577Z,3.3
2018-12-12T12:28:49.621Z,3.3
2018-12-12T12:30:49.695Z,3.3
2018-12-12T12:32:49.854Z,3.4
2018-12-12T12:34:50.040Z,3.2
2018-12-12T12:36:50.237Z,3.2
2018-12-12T12:38:50.392Z,2.9
2018-12-12T12:40:49.525Z,3.2
2018-12-12T12:42:49.737Z,2.7
2018-12-12T12:44:49.957Z,2.7
2018-12-12T12:46:50.279Z,3.0
2018-12-12T12:48:50.497Z,3.0
2018-12-12T12:50:49.852Z,3.3
2018-12-12T12:52:50.114Z,3.4
2018-12-12T12:54:49.867Z,3.3
2018-12-12T12:56:50.093Z,3.3
2018-12-12T12:58:50.118Z,3.2
2018-12-12T13:00:50.053Z,3.7
2018-12-12T13:02:50.070Z,3.5
2018-12-12T13:04:50.272Z,3.8
2018-12-12T13:06:50.449Z,3.8
2018-12-12T13:08:50.482Z,3.6
2018-12-12T13:10:49.529Z,3.6
2018-12-12T13:12:49.522Z,3.1
2018-12-12T13:14:49.551Z,3.1
2018-12-12T13:16:49.783Z,4.0
2018-12-12T13:18:49.734Z,3.9
2018-12-12T13:20:49.694Z,3.7
2018-12-12T13:22:49.745Z,3.2
2018-12-12T13:24:49.788Z,3.2
2018-12-12T13:26:53.977Z,3.1
2018-12-12T13:28:50.292Z,3.1
2018-12-12T13:30:50.293Z,3.1
2018-12-12T13:32:50.266Z,2.8
2018-12-12T13:34:49.664Z,3.0
2018-12-12T13:36:49.874Z,3.0
2018-12-12T13:38:49.778Z,2.9
2018-12-12T13:40:49.729Z,2.8
2018-12-12T13:42:49.659Z,3.0
2018-12-12T13:44:49.657Z,3.0
2018-12-12T13:46:49.833Z,3.0
2018-12-12T13:48:49.905Z,3.0
2018-12-12T13:50:49.909Z,3.0
2018-12-12T13:52:49.853Z,3.0
2018-12-12T13:54:49.821Z,3.0
2018-12-12T13:56:50.046Z,3.0
2018-12-12T13:58:49.955Z,3.0
2018-12-12T14:00:49.992Z,3.2
2018-12-12T14:02:49.963Z,3.2
2018-12-12T14:04:50.202Z,3.2
2018-12-12T14:06:50.418Z,3.2
2018-12-12T14:08:50.383Z,3.2
2018-12-12T14:10:50.413Z,3.3
2018-12-12T14:12:50.364Z,3.2
2018-12-12T14:14:50.282Z,3.2
2018-12-12T14:16:49.539Z,3.1
2018-12-12T14:18:50.424Z,2.9
2018-12-12T14:20:50.475Z,2.7
2018-12-12T14:22:49.538Z,2.4
2018-12-12T14:24:49.534Z,2.4
2018-12-12T14:26:49.719Z,2.6
2018-12-12T14:28:49.669Z,2.8
2018-12-12T14:30:49.684Z,3.4
2018-12-12T14:32:49.825Z,3.7
2018-12-12T14:34:50.010Z,3.7
2018-12-12T14:36:50.163Z,3.4
2018-12-12T14:38:50.146Z,3.4
2018-12-12T14:40:50.135Z,3.4
2018-12-12T14:42:50.096Z,3.2
2018-12-12T14:44:49.982Z,3.5
2018-12-12T14:46:50.162Z,3.5
2018-12-12T14:48:50.081Z,3.5
2018-12-12T14:50:49.967Z,4.0
2018-12-12T14:52:49.971Z,4.0
2018-12-12T14:54:49.942Z,3.9
2018-12-12T14:56:50.063Z,4.2
2018-12-12T14:58:50.013Z,3.5
2018-12-12T15:00:49.948Z,3.5
2018-12-12T15:02:49.873Z,3.4
2018-12-12T15:04:50.137Z,3.1
2018-12-12T15:06:50.242Z,2.7
2018-12-12T15:08:50.197Z,2.5
2018-12-12T15:10:50.203Z,2.5
2018-12-12T15:12:50.120Z,2.6
2018-12-12T15:14:50.136Z,2.6
2018-12-12T15:16:50.233Z,2.7
2018-12-12T15:18:50.160Z,2.7
2018-12-12T15:20:50.125Z,2.6
2018-12-12T15:22:50.106Z,2.6
2018-12-12T15:24:50.067Z,2.8
2018-12-12T15:26:50.251Z,2.8
2018-12-12T15:28:50.221Z,2.8
2018-12-12T15:30:50.179Z,3.1
2018-12-12T15:32:50.186Z,3.1
2018-12-12T15:34:49.501Z,3.5
2018-12-12T15:36:49.634Z,2.8
2018-12-12T15:38:49.652Z,2.8
2018-12-12T15:40:49.663Z,3.1
2018-12-12T15:42:49.633Z,3.1
2018-12-12T15:44:49.656Z,2.5
2018-12-12T15:46:49.807Z,2.7
2018-12-12T15:48:49.686Z,3.0
2018-12-12T15:50:49.770Z,3.0
2018-12-12T15:52:49.753Z,2.7
2018-12-12T15:54:49.754Z,2.7
2018-12-12T15:56:50.002Z,3.1
2018-12-12T15:58:49.986Z,3.1
2018-12-12T16:00:49.995Z,3.0
2018-12-12T16:02:49.996Z,3.1
2018-12-12T16:04:50.200Z,3.0
2018-12-12T16:06:50.374Z,3.0
2018-12-12T16:08:50.306Z,3.0
2018-12-12T16:10:50.291Z,3.2
2018-12-12T16:12:50.355Z,3.2
2018-12-12T16:14:50.367Z,3.4
2018-12-12T16:16:49.531Z,3.4
2018-12-12T16:18:49.603Z,3.2
2018-12-12T16:20:49.558Z,3.2
2018-12-12T16:22:49.535Z,3.5
2018-12-12T16:24:49.711Z,3.5
2018-12-12T16:26:49.882Z,3.5
2018-12-12T16:28:49.933Z,3.9
2018-12-12T16:30:49.889Z,3.9
2018-12-12T16:32:49.919Z,3.6
2018-12-12T16:34:55.947Z,3.7
2018-12-12T16:36:50.179Z,3.9
2018-12-12T16:38:50.101Z,3.9
2018-12-12T16:40:50.048Z,4.3
2018-12-12T16:42:50.020Z,3.8
2018-12-12T16:44:50.040Z,4.0
2018-12-12T16:46:50.134Z,4.0
2018-12-12T16:48:50.041Z,4.2
2018-12-12T16:50:50.081Z,4.2
2018-12-12T16:52:50.050Z,4.2
2018-12-12T16:54:50.013Z,3.8
2018-12-12T16:56:50.179Z,3.8
2018-12-12T16:58:50.172Z,4.2
2018-12-12T17:00:50.110Z,4.3
2018-12-12T17:02:50.081Z,4.6
2018-12-12T17:04:50.390Z,4.6
2018-12-12T17:06:49.646Z,4.7
2018-12-12T17:08:49.631Z,4.7
2018-12-12T17:10:49.703Z,4.5
2018-12-12T17:12:49.807Z,4.7
2018-12-12T17:14:49.712Z,4.7
2018-12-12T17:16:50.049Z,4.8
2018-12-12T17:18:50.018Z,4.8
2018-12-12T17:20:49.958Z,5.1
2018-12-12T17:22:49.980Z,4.7
2018-12-12T17:24:49.988Z,4.9
2018-12-12T17:26:50.124Z,4.9
2018-12-12T17:28:50.158Z,4.9
2018-12-12T17:30:50.115Z,4.6
2018-12-12T17:32:50.185Z,5.0
2018-12-12T17:34:50.325Z,4.9
2018-12-12T17:36:49.640Z,4.9
2018-12-12T17:38:49.681Z,4.7
2018-12-12T17:40:49.707Z,4.7
2018-12-12T17:42:49.681Z,5.1
2018-12-12T17:44:49.798Z,5.1
2018-12-12T17:46:49.906Z,5.1
2018-12-12T17:48:49.929Z,5.4
2018-12-12T17:50:49.872Z,5.0
2018-12-12T17:52:49.782Z,4.9
2018-12-12T17:54:49.751Z,5.4
2018-12-12T17:56:50.042Z,5.4
2018-12-12T17:58:49.958Z,5.5
2018-12-12T18:00:49.988Z,5.5
2018-12-12T18:02:49.956Z,5.6
2018-12-12T18:04:50.276Z,5.6
2018-12-12T18:06:50.353Z,5.8
2018-12-12T18:08:50.420Z,5.5
2018-12-12T18:10:50.376Z,5.8
2018-12-12T18:12:50.388Z,5.8
2018-12-12T18:14:50.498Z,5.8
2018-12-12T18:16:49.698Z,5.6
2018-12-12T18:18:49.704Z,5.6
2018-12-12T18:20:49.690Z,6.5
2018-12-12T18:22:49.699Z,6.5
2018-12-12T18:24:49.783Z,6.4
2018-12-12T18:26:49.953Z,7.1
2018-12-12T18:28:49.963Z,6.8
2018-12-12T18:30:50.048Z,6.9
2018-12-12T18:32:50.008Z,6.9
2018-12-12T18:34:50.272Z,7.0
2018-12-12T18:36:50.386Z,7.0
2018-12-12T18:38:50.330Z,7.0
2018-12-12T18:40:50.360Z,7.5
2018-12-12T18:42:50.120Z,7.5
2018-12-12T18:44:49.905Z,7.2
2018-12-12T18:46:50.013Z,7.2
2018-12-12T18:48:49.771Z,8.0
2018-12-12T18:50:49.644Z,8.0
2018-12-12T18:52:50.442Z,8.0
2018-12-12T18:54:50.321Z,8.0
2018-12-12T18:56:50.304Z,8.4
2018-12-12T18:58:50.119Z,8.0
2018-12-12T19:00:49.893Z,8.0
2018-12-12T19:02:49.780Z,8.2
2018-12-12T19:04:49.840Z,8.3
2018-12-12T19:06:50.029Z,9.4
2018-12-12T19:08:49.785Z,9.1
2018-12-12T19:10:49.719Z,9.1
2018-12-12T19:12:49.535Z,9.4
2018-12-12T19:14:50.378Z,9.6
2018-12-12T19:16:50.412Z,9.6
2018-12-12T19:18:50.260Z,9.5
2018-12-12T19:20:50.088Z,9.7
2018-12-12T19:22:49.926Z,9.7
2018-12-12T19:24:49.703Z,9.4
2018-12-12T19:26:49.752Z,9.5
2018-12-12T19:28:49.543Z,9.5
2018-12-12T19:30:50.406Z,9.4
2018-12-12T19:32:51.286Z,10.4
2018-12-12T19:34:50.387Z,10.5
2018-12-12T19:36:50.389Z,10.6
2018-12-12T19:38:50.151Z,10.6
2018-12-12T19:40:49.946Z,10.8
2018-12-12T19:42:49.808Z,10.8
2018-12-12T19:44:49.620Z,10.6
2018-12-12T19:46:49.704Z,10.2
2018-12-12T19:48:49.662Z,10.2
2018-12-12T19:50:49.558Z,10.2
2018-12-12T19:52:50.348Z,11.1
2018-12-12T19:54:50.071Z,10.6
2018-12-12T19:56:50.150Z,11.1
2018-12-12T19:58:50.030Z,11.1
2018-12-12T20:00:50.035Z,12.0
2018-12-12T20:02:49.960Z,11.5
2018-12-12T20:04:50.147Z,12.0
2018-12-12T20:06:50.206Z,12.9
2018-12-12T20:08:50.025Z,12.9
2018-12-12T20:10:49.825Z,12.9
2018-12-12T20:12:49.680Z,12.3
2018-12-12T20:14:50.417Z,12.2
2018-12-12T20:16:50.398Z,12.2
2018-12-12T20:18:50.160Z,12.9
2018-12-12T20:20:49.919Z,13.1
2018-12-12T20:22:49.691Z,13.4
2018-12-12T20:24:49.530Z,13.9
2018-12-12T20:26:49.581Z,13.9
2018-12-12T20:28:50.423Z,12.4
2018-12-12T20:30:50.228Z,12.4
2018-12-12T20:32:50.059Z,11.9
2018-12-12T20:34:50.175Z,11.4
2018-12-12T20:36:50.072Z,11.4
2018-12-12T20:38:49.945Z,12.2
2018-12-12T20:40:49.763Z,12.2
2018-12-12T20:42:49.539Z,12.3
2018-12-12T20:44:50.392Z,11.7
2018-12-12T20:46:50.359Z,11.0
2018-12-12T20:48:50.106Z,11.0
2018-12-12T20:50:49.949Z,10.9
2018-12-12T20:52:49.753Z,11.3
2018-12-12T20:54:49.534Z,11.3
2018-12-12T20:56:49.654Z,11.2
2018-12-12T20:58:49.576Z,11.5
2018-12-12T21:00:50.335Z,12.0
2018-12-12T21:02:50.178Z,11.2
2018-12-12T21:04:50.340Z,13.2
2018-12-12T21:06:50.425Z,13.2
2018-12-12T21:08:50.167Z,11.8
2018-12-12T21:10:49.994Z,11.6
2018-12-12T21:12:50.033Z,12.3
2018-12-12T21:14:50.096Z,12.3
2018-12-12T21:16:50.137Z,11.9
2018-12-12T21:18:49.894Z,12.3
2018-12-12T21:20:49.807Z,12.7
2018-12-12T21:22:49.694Z,12.6
2018-12-12T21:24:49.530Z,12.6
2018-12-12T21:26:49.587Z,13.4
2018-12-12T21:28:50.436Z,12.9
2018-12-12T21:30:50.380Z,14.0
2018-12-12T21:32:50.176Z,14.3
2018-12-12T21:34:50.337Z,14.3
2018-12-12T21:36:50.311Z,14.3
2018-12-12T21:38:50.140Z,14.3
2018-12-12T21:40:49.986Z,13.9
2018-12-12T21:42:49.844Z,13.3
2018-12-12T21:44:49.735Z,13.3
2018-12-12T21:46:49.823Z,14.3
2018-12-12T21:48:49.697Z,13.1
2018-12-12T21:50:50.500Z,14.4
2018-12-12T21:52:50.356Z,14.4
2018-12-12T21:54:50.236Z,14.0
2018-12-12T21:56:50.227Z,13.6
2018-12-12T21:58:50.156Z,13.6
2018-12-12T22:00:50.016Z,13.5
2018-12-12T22:02:49.880Z,13.5
2018-12-12T22:04:50.077Z,15.4
2018-12-12T22:06:50.239Z,14.6
2018-12-12T22:08:50.002Z,14.5
2018-12-12T22:10:49.860Z,14.0
2018-12-12T22:12:49.734Z,14.0
2018-12-12T22:14:49.536Z,14.5
2018-12-12T22:16:49.610Z,14.5
2018-12-12T22:18:50.371Z,14.5
2018-12-12T22:20:50.213Z,14.0
2018-12-12T22:22:50.012Z,14.1
2018-12-12T22:24:49.880Z,14.8
2018-12-12T22:26:49.947Z,14.5
2018-12-12T22:28:49.760Z,13.9
2018-12-12T22:30:49.595Z,14.5
2018-12-12T22:32:50.450Z,14.5
2018-12-12T22:34:49.755Z,14.8
2018-12-12T22:36:49.848Z,16.1
2018-12-12T22:38:49.725Z,14.7
2018-12-12T22:40:49.572Z,15.0
2018-12-12T22:42:50.354Z,15.0
2018-12-12T22:44:50.119Z,15.3
2018-12-12T22:46:50.131Z,15.0
2018-12-12T22:48:50.026Z,15.4
2018-12-12T22:50:49.854Z,15.4
2018-12-12T22:52:49.680Z,15.7
2018-12-12T22:54:50.418Z,15.1
2018-12-12T22:56:50.490Z,14.8
2018-12-12T22:58:50.297Z,15.8
2018-12-12T23:00:50.114Z,15.8
2018-12-12T23:02:49.951Z,15.6
2018-12-12T23:04:50.001Z,16.0
2018-12-12T23:06:50.113Z,16.1
2018-12-12T23:08:49.900Z,15.6
2018-12-12T23:10:49.705Z,15.6
2018-12-12T23:12:49.542Z,15.6
2018-12-12T23:14:50.357Z,15.6
2018-12-12T23:16:49.529Z,16.4
2018-12-12T23:18:49.620Z,16.4
2018-12-12T23:20:50.428Z,16.1
2018-12-12T23:22:50.323Z,16.1
2018-12-12T23:24:50.087Z,16.3
2018-12-12T23:26:50.153Z,16.3
2018-12-12T23:28:49.984Z,17.1
2018-12-12T23:30:49.834Z,17.4
2018-12-12T23:32:49.725Z,17.4
2018-12-12T23:34:50.031Z,17.1
2018-12-12T23:36:50.027Z,18.0
2018-12-12T23:38:49.835Z,17.2
2018-12-12T23:40:49.711Z,17.2
2018-12-12T23:42:49.679Z,19.0
2018-12-12T23:44:49.543Z,18.2
2018-12-12T23:46:49.681Z,18.2
2018-12-12T23:48:49.576Z,18.3
2018-12-12T23:50:50.469Z,18.3
2018-12-12T23:52:50.255Z,18.9
2018-12-12T23:54:50.055Z,18.9
2018-12-12T23:56:50.118Z,18.9
